Time;durP1;ratioP1;P1;durP2;ratioP2;P2;SDS_P1;SDS_P2;PMS_P1;PMS_P2;Temp;Humidity;BMP_temperature;BMP_pressure;BME280_temperature;BME280_humidity;BME280_pressure;Samples;Min_cycle;Max_cycle;Signal;HPM_P1;HPM_P2
2022/04/02 00:00:55;;;;;;;3.40;1.43;;;;;;;;;;5031762;28;20139;-68
2022/04/02 00:03:21;;;;;;;2.37;1.30;;;2.60;99.90;;;;;;5031885;28;20026;-68
2022/04/02 00:05:47;;;;;;;4.03;1.40;;;2.70;99.90;;;;;;5031360;28;20049;-69
2022/04/02 00:08:12;;;;;;;3.17;1.60;;;2.70;99.90;;;;;;5031650;28;20030;-68
2022/04/02 00:10:38;;;;;;;4.23;2.10;;;2.70;99.90;;;;;;5030790;28;20525;-68
2022/04/02 00:13:04;;;;;;;2.60;1.20;;;2.70;99.90;;;;;;5031480;28;20041;-68
2022/04/02 00:15:29;;;;;;;2.63;1.40;;;;;;;;;;5031100;28;20094;-68
2022/04/02 00:17:55;;;;;;;3.47;1.77;;;2.70;99.90;;;;;;5031227;28;20138;-68
2022/04/02 00:20:21;;;;;;;3.77;1.70;;;2.70;99.90;;;;;;5016057;28;20118;-68
2022/04/02 00:25:31;;;;;;;3.65;1.27;;;2.50;99.90;;;;;;5030801;28;20029;-68
2022/04/02 00:27:56;;;;;;;2.63;1.20;;;2.50;99.90;;;;;;5031645;28;20033;-68
2022/04/02 00:30:22;;;;;;;2.70;1.50;;;2.50;99.90;;;;;;5031330;28;20029;-68
2022/04/02 00:32:48;;;;;;;3.43;1.93;;;2.80;99.90;;;;;;5030942;28;20025;-68
2022/04/02 00:35:14;;;;;;;3.30;1.30;;;2.60;99.90;;;;;;5031329;28;20029;-68
2022/04/02 00:37:40;;;;;;;4.47;1.53;;;;;;;;;;5029554;28;20031;-68
2022/04/02 00:40:06;;;;;;;4.13;1.30;;;2.70;99.90;;;;;;5029350;28;20116;-68
2022/04/02 00:42:32;;;;;;;4.63;1.73;;;2.50;99.90;;;;;;5030538;28;20119;-68
2022/04/02 00:44:58;;;;;;;3.63;1.40;;;2.60;99.90;;;;;;5030686;28;20029;-68
2022/04/02 00:47:23;;;;;;;5.57;1.67;;;2.10;99.90;;;;;;5030756;28;20033;-68
2022/04/02 00:49:51;;;;;;;3.23;1.50;;;2.60;99.90;;;;;;5031038;28;20026;-68
2022/04/02 00:52:17;;;;;;;3.47;2.00;;;2.60;99.90;;;;;;5034153;28;20033;-67
2022/04/02 00:54:44;;;;;;;3.93;1.20;;;2.40;99.90;;;;;;5029533;28;20044;-67
2022/04/02 00:57:10;;;;;;;2.83;1.40;;;;;;;;;;5030353;28;20060;-67
2022/04/02 00:59:35;;;;;;;3.70;1.50;;;2.10;99.90;;;;;;5029908;28;20479;-67
2022/04/02 01:02:01;;;;;;;2.73;1.67;;;;;;;;;;5030190;28;20038;-68
2022/04/02 01:04:30;;;;;;;4.47;1.93;;;2.50;98.60;;;;;;5029931;28;20136;-67
2022/04/02 01:06:58;;;;;;;4.07;1.87;;;;;;;;;;5030009;28;20121;-68
2022/04/02 01:09:25;;;;;;;4.10;1.80;;;2.50;99.90;;;;;;5030256;28;20025;-67
2022/04/02 01:11:52;;;;;;;2.37;1.00;;;;;;;;;;5029998;28;20029;-68
2022/04/02 01:14:18;;;;;;;2.80;1.53;;;2.50;96.80;;;;;;5029505;28;20052;-67
2022/04/02 01:16:44;;;;;;;3.10;1.70;;;2.50;99.90;;;;;;5029691;28;20280;-69
2022/04/02 01:19:09;;;;;;;2.40;1.60;;;2.50;99.90;;;;;;5029982;28;20119;-67
2022/04/02 01:21:36;;;;;;;2.77;1.20;;;2.50;99.90;;;;;;5028877;28;20038;-68
2022/04/02 01:24:02;;;;;;;3.10;1.50;;;2.60;99.80;;;;;;5029857;28;20021;-68
2022/04/02 01:26:28;;;;;;;2.53;1.47;;;2.60;99.90;;;;;;5028416;28;20478;-67
2022/04/02 01:29:00;;;;;;;3.47;2.13;;;2.40;96.40;;;;;;5022697;28;20119;-67
2022/04/02 01:31:27;;;;;;;4.70;1.70;;;2.40;99.90;;;;;;5023782;28;20021;-67
2022/04/02 01:33:53;;;;;;;4.07;1.83;;;2.40;99.90;;;;;;5029701;28;20075;-67
2022/04/02 01:36:19;;;;;;;3.10;1.27;;;2.30;99.90;;;;;;5028800;28;20075;-68
2022/04/02 01:38:46;;;;;;;2.43;1.47;;;2.40;99.90;;;;;;5029274;28;20433;-67
2022/04/02 01:41:12;;;;;;;4.23;1.80;;;2.50;99.90;;;;;;5023219;28;20076;-67
2022/04/02 01:43:38;;;;;;;2.90;1.83;;;;;;;;;;5028966;28;20512;-67
2022/04/02 01:46:04;;;;;;;3.30;1.63;;;2.40;99.90;;;;;;5029505;28;20171;-67
2022/04/02 01:48:30;;;;;;;4.33;1.50;;;2.50;96.80;;;;;;5028620;28;20466;-68
2022/04/02 01:50:56;;;;;;;3.77;1.63;;;2.50;99.90;;;;;;5029022;28;20072;-68
2022/04/02 01:53:23;;;;;;;2.80;1.33;;;2.40;99.90;;;;;;5029460;28;20112;-67
2022/04/02 01:55:49;;;;;;;2.50;1.30;;;;;;;;;;5029037;28;20544;-67
2022/04/02 01:58:15;;;;;;;3.40;1.70;;;2.40;99.90;;;;;;5035645;28;20037;-67
2022/04/02 02:00:41;;;;;;;5.00;1.30;;;;;;;;;;5028797;28;20026;-67
2022/04/02 02:03:07;;;;;;;3.30;2.10;;;2.40;99.90;;;;;;5029112;28;20040;-68
2022/04/02 02:05:33;;;;;;;3.20;1.10;;;2.20;98.40;;;;;;5028495;28;20112;-67
2022/04/02 02:07:59;;;;;;;2.13;1.63;;;2.30;99.90;;;;;;5029301;28;20025;-67
2022/04/02 02:10:25;;;;;;;2.93;1.33;;;;;;;;;;5028910;28;20415;-68
2022/04/02 02:12:51;;;;;;;4.67;1.47;;;2.50;99.90;;;;;;5028888;28;20030;-68
2022/04/02 02:15:17;;;;;;;3.50;1.93;;;2.40;99.90;;;;;;5029223;28;20032;-67
2022/04/02 02:17:49;;;;;;;4.60;2.10;;;2.40;99.90;;;;;;5028982;28;20037;-68
2022/04/02 02:20:16;;;;;;;2.73;1.50;;;2.40;99.90;;;;;;5028689;28;20041;-68
2022/04/02 02:22:43;;;;;;;3.77;1.73;;;2.30;99.90;;;;;;5028520;28;20041;-68
2022/04/02 02:25:11;;;;;;;5.53;1.87;;;2.40;97.70;;;;;;5029174;28;20040;-68
2022/04/02 02:27:38;;;;;;;7.50;1.63;;;2.20;99.90;;;;;;5028790;28;20026;-67
2022/04/02 02:30:05;;;;;;;2.13;1.67;;;2.20;98.00;;;;;;5028959;28;20029;-67
2022/04/02 02:32:35;;;;;;;2.73;1.80;;;1.70;99.90;;;;;;5027244;28;20087;-68
2022/04/02 02:37:45;;;;;;;3.85;1.80;;;2.00;99.90;;;;;;5028796;28;20113;-68
2022/04/02 02:40:12;;;;;;;4.93;1.90;;;;;;;;;;5028958;28;20124;-68
2022/04/02 02:42:38;;;;;;;3.93;1.43;;;2.00;99.90;;;;;;5028494;28;20056;-68
2022/04/02 02:45:04;;;;;;;3.00;1.40;;;2.20;99.90;;;;;;5029150;28;20116;-68
2022/04/02 02:47:30;;;;;;;3.77;1.23;;;;;;;;;;5028450;28;20041;-68
2022/04/02 02:49:56;;;;;;;2.33;1.50;;;;;;;;;;5028195;28;20380;-68
2022/04/02 02:52:22;;;;;;;5.33;1.40;;;;;;;;;;5029188;28;20029;-68
2022/04/02 02:54:47;;;;;;;2.87;1.57;;;2.00;99.90;;;;;;5028865;28;20438;-68
2022/04/02 02:57:13;;;;;;;5.13;1.87;;;;;;;;;;5028862;28;20109;-68
2022/04/02 02:59:39;;;;;;;2.80;1.37;;;2.10;99.90;;;;;;5027166;28;20057;-68
2022/04/02 03:02:05;;;;;;;3.47;1.53;;;2.20;99.90;;;;;;5028617;28;20444;-68
2022/04/02 03:04:31;;;;;;;2.97;1.50;;;;;;;;;;5026357;28;20018;-68
2022/04/02 03:06:57;;;;;;;4.47;1.67;;;2.00;99.90;;;;;;5026264;28;20033;-68
2022/04/02 03:09:23;;;;;;;2.40;1.30;;;;;;;;;;5026481;28;20022;-68
2022/04/02 03:11:50;;;;;;;3.13;1.70;;;;;;;;;;5026736;28;20025;-68
2022/04/02 03:14:15;;;;;;;1.80;1.30;;;;;;;;;;5026586;28;20025;-68
2022/04/02 03:16:41;;;;;;;4.10;1.33;;;2.10;99.90;;;;;;5026341;28;20819;-68
2022/04/02 03:19:07;;;;;;;5.37;1.67;;;2.10;99.90;;;;;;5026437;28;20397;-67
2022/04/02 03:21:33;;;;;;;3.80;1.30;;;;;;;;;;5028303;28;20034;-68
2022/04/02 03:23:59;;;;;;;3.93;1.60;;;1.90;99.90;;;;;;5028940;28;20065;-68
2022/04/02 03:26:27;;;;;;;3.13;1.40;;;1.90;98.60;;;;;;5028394;28;20120;-68
2022/04/02 03:28:52;;;;;;;2.70;1.50;;;2.00;99.90;;;;;;5027053;28;20036;-68
2022/04/02 03:31:19;;;;;;;2.80;1.63;;;;;;;;;;5028522;28;20025;-68
2022/04/02 03:33:45;;;;;;;3.27;1.50;;;;;;;;;;5027611;28;20025;-68
2022/04/02 03:36:14;;;;;;;3.77;1.80;;;;;;;;;;5028248;28;20033;-68
2022/04/02 03:38:41;;;;;;;3.17;1.30;;;1.70;99.90;;;;;;5028247;28;20042;-68
2022/04/02 03:41:06;;;;;;;3.80;1.80;;;1.80;99.90;;;;;;5028385;28;20215;-68
2022/04/02 03:43:32;;;;;;;3.83;1.47;;;1.80;99.90;;;;;;5027953;28;20526;-68
2022/04/02 03:47:08;;;;;;;4.30;1.70;;;1.80;99.90;;;;;;5028962;28;20513;-68
2022/04/02 03:48:44;;;;;;;5.40;1.97;;;2.10;99.90;;;;;;5028025;28;20030;-68
2022/04/02 03:51:10;;;;;;;3.20;1.47;;;;;;;;;;5032179;28;20082;-68
2022/04/02 03:53:36;;;;;;;3.87;1.53;;;2.00;99.90;;;;;;5031638;28;20136;-68
2022/04/02 03:56:02;;;;;;;4.13;1.50;;;;;;;;;;5032040;28;20375;-68
2022/04/02 03:58:28;;;;;;;3.07;1.80;;;1.80;99.90;;;;;;5031426;28;20032;-68
2022/04/02 04:00:54;;;;;;;2.67;1.47;;;;;;;;;;5031718;28;20394;-68
2022/04/02 04:03:20;;;;;;;3.27;1.67;;;1.70;99.90;;;;;;5031472;28;20041;-68
2022/04/02 04:05:46;;;;;;;3.43;1.80;;;;;;;;;;5031120;28;20033;-68
2022/04/02 04:08:12;;;;;;;3.53;1.50;;;1.90;99.90;;;;;;5031911;28;20021;-68
2022/04/02 04:10:38;;;;;;;2.83;1.70;;;;;;;;;;5031103;28;20366;-67
2022/04/02 04:13:03;;;;;;;4.70;2.10;;;1.80;99.90;;;;;;5031679;28;20505;-68
2022/04/02 04:15:29;;;;;;;3.63;1.60;;;;;;;;;;5030531;28;20030;-67
2022/04/02 04:17:56;;;;;;;4.60;1.57;;;1.80;99.90;;;;;;5031712;28;20044;-68
2022/04/02 04:20:22;;;;;;;4.37;1.40;;;;;;;;;;5031441;28;20105;-67
2022/04/02 04:22:48;;;;;;;5.50;1.77;;;;;;;;;;5031135;28;20068;-68
2022/04/02 04:25:14;;;;;;;5.93;1.37;;;1.90;99.90;;;;;;5031141;28;20079;-68
2022/04/02 04:27:39;;;;;;;2.03;1.40;;;1.70;99.90;;;;;;5030623;28;20025;-68
2022/04/02 04:30:06;;;;;;;4.37;1.70;;;1.70;99.90;;;;;;5030552;28;20434;-68
2022/04/02 04:32:32;;;;;;;3.50;1.50;;;;;;;;;;5031041;28;20017;-68
2022/04/02 04:34:57;;;;;;;2.37;1.47;;;1.70;99.90;;;;;;5031380;28;20124;-68
2022/04/02 04:37:23;;;;;;;3.90;1.83;;;;;;;;;;5030786;28;20096;-68
2022/04/02 04:39:49;;;;;;;3.13;1.73;;;1.80;99.90;;;;;;5030999;28;20040;-68
2022/04/02 04:42:14;;;;;;;3.53;1.50;;;1.70;99.90;;;;;;5030864;28;20049;-68
2022/04/02 04:44:40;;;;;;;2.53;1.60;;;1.50;99.90;;;;;;5029593;28;20026;-68
2022/04/02 04:47:06;;;;;;;3.57;1.53;;;1.50;99.90;;;;;;5030967;28;20037;-68
2022/04/02 04:49:32;;;;;;;2.97;1.77;;;1.40;99.90;;;;;;5030611;28;20060;-68
2022/04/02 04:51:58;;;;;;;2.20;1.10;;;1.70;99.90;;;;;;5031325;28;20029;-68
2022/04/02 04:54:23;;;;;;;6.13;1.80;;;1.50;99.90;;;;;;5030673;28;20039;-68
2022/04/02 04:56:49;;;;;;;2.47;1.47;;;1.60;99.90;;;;;;5030608;28;20026;-68
2022/04/02 04:59:15;;;;;;;3.40;1.47;;;;;;;;;;5030132;28;20883;-68
2022/04/02 05:01:40;;;;;;;3.80;1.70;;;1.70;99.90;;;;;;5030330;28;20042;-68
2022/04/02 05:04:06;;;;;;;3.83;1.37;;;1.70;99.90;;;;;;5029341;28;20028;-68
2022/04/02 05:06:33;;;;;;;4.67;1.80;;;1.90;99.90;;;;;;5030135;28;20021;-68
2022/04/02 05:08:59;;;;;;;3.73;1.70;;;;;;;;;;5029011;28;20117;-68
2022/04/02 05:11:25;;;;;;;2.57;1.90;;;;;;;;;;5030353;28;20096;-68
2022/04/02 05:13:51;;;;;;;3.27;1.67;;;1.70;99.90;;;;;;5030130;28;20048;-68
2022/04/02 05:16:17;;;;;;;3.10;1.47;;;1.80;99.90;;;;;;5030183;28;20037;-68
2022/04/02 05:18:44;;;;;;;4.60;2.03;;;;;;;;;;5029896;28;20140;-68
2022/04/02 05:21:10;;;;;;;5.43;1.90;;;;;;;;;;5030430;28;20025;-68
2022/04/02 05:23:36;;;;;;;3.13;1.47;;;1.50;99.90;;;;;;5029645;28;20438;-68
2022/04/02 05:26:02;;;;;;;3.20;1.47;;;2.00;99.90;;;;;;5030380;28;20116;-68
2022/04/02 05:28:28;;;;;;;4.73;2.23;;;1.90;99.90;;;;;;5029467;28;20109;-68
2022/04/02 05:30:54;;;;;;;5.80;2.43;;;1.70;99.90;;;;;;5030290;28;20059;-68
2022/04/02 05:33:21;;;;;;;4.77;2.03;;;1.90;99.90;;;;;;5030126;28;20127;-68
2022/04/02 05:35:47;;;;;;;2.97;1.90;;;1.80;99.90;;;;;;5029691;28;20025;-68
2022/04/02 05:38:13;;;;;;;4.83;1.73;;;1.40;99.90;;;;;;5030186;28;20021;-68
2022/04/02 05:40:38;;;;;;;2.80;1.70;;;1.60;99.90;;;;;;5027992;28;20032;-68
2022/04/02 05:43:05;;;;;;;4.97;2.03;;;1.30;99.70;;;;;;5029410;28;20049;-67
2022/04/02 05:45:32;;;;;;;7.20;2.13;;;;;;;;;;5029592;28;20036;-67
2022/04/02 05:47:57;;;;;;;2.90;1.43;;;;;;;;;;5029786;28;20021;-68
2022/04/02 05:50:25;;;;;;;5.10;2.17;;;;;;;;;;5029620;28;20308;-68
2022/04/02 05:52:51;;;;;;;4.50;1.80;;;1.50;99.90;;;;;;5029651;28;20037;-68
2022/04/02 05:55:17;;;;;;;3.63;2.07;;;1.60;99.90;;;;;;5029810;28;20126;-68
2022/04/02 05:57:44;;;;;;;3.60;1.60;;;1.70;99.90;;;;;;5028616;28;20477;-68
2022/04/02 06:00:11;;;;;;;3.97;1.80;;;1.50;99.90;;;;;;5029626;28;20033;-68
2022/04/02 06:02:38;;;;;;;4.53;1.93;;;1.60;99.90;;;;;;5011140;28;20119;-68
2022/04/02 06:05:04;;;;;;;4.13;2.03;;;1.50;99.90;;;;;;5029600;28;20049;-68
2022/04/02 06:07:30;;;;;;;4.07;1.80;;;1.60;99.90;;;;;;5029267;28;20040;-68
2022/04/02 06:09:57;;;;;;;4.90;2.23;;;;;;;;;;5029261;28;20026;-68
2022/04/02 06:12:23;;;;;;;3.13;1.77;;;;;;;;;;5028602;28;20055;-67
2022/04/02 06:14:48;;;;;;;3.63;2.73;;;1.50;99.90;;;;;;5029156;28;20029;-68
2022/04/02 06:17:14;;;;;;;5.13;1.80;;;1.70;99.90;;;;;;5029596;28;20104;-68
2022/04/02 06:19:39;;;;;;;3.60;2.13;;;1.50;99.90;;;;;;5028912;28;20032;-68
2022/04/02 06:22:08;;;;;;;8.37;2.17;;;1.60;99.90;;;;;;5029413;28;20041;-68
2022/04/02 06:24:34;;;;;;;3.33;2.20;;;1.70;99.90;;;;;;5028765;28;20143;-68
2022/04/02 06:27:00;;;;;;;5.93;3.43;;;1.80;99.90;;;;;;5028940;28;20094;-68
2022/04/02 06:29:25;;;;;;;3.13;2.03;;;1.80;99.90;;;;;;5029259;28;20018;-68
2022/04/02 06:31:51;;;;;;;6.03;1.73;;;1.80;99.90;;;;;;5029007;28;20072;-67
2022/04/02 06:34:16;;;;;;;7.60;2.67;;;2.00;99.90;;;;;;5029092;28;20022;-68
2022/04/02 06:36:42;;;;;;;5.57;2.20;;;2.10;99.90;;;;;;5026479;28;20178;-67
2022/04/02 06:39:07;;;;;;;4.13;2.03;;;2.00;99.90;;;;;;5027026;28;20028;-67
2022/04/02 06:41:33;;;;;;;4.27;2.03;;;2.00;99.90;;;;;;5027618;28;20126;-67
2022/04/02 06:43:59;;;;;;;3.27;1.97;;;;;;;;;;5028915;28;20020;-67
2022/04/02 06:46:24;;;;;;;3.77;1.97;;;2.30;99.90;;;;;;5028644;28;20100;-67
2022/04/02 06:48:50;;;;;;;6.87;2.90;;;2.30;99.90;;;;;;5028577;28;20150;-67
2022/04/02 06:51:17;;;;;;;4.57;2.67;;;2.70;99.90;;;;;;5028925;28;20021;-68
2022/04/02 06:53:42;;;;;;;6.60;3.07;;;2.50;99.90;;;;;;5028241;28;20052;-67
2022/04/02 06:56:08;;;;;;;6.57;2.30;;;;;;;;;;5026792;28;20033;-67
2022/04/02 06:58:36;;;;;;;3.70;2.27;;;2.60;99.90;;;;;;5028188;28;20026;-68
2022/04/02 07:01:02;;;;;;;4.67;2.30;;;2.70;99.90;;;;;;5027189;28;20026;-68
2022/04/02 07:03:27;;;;;;;3.60;2.20;;;2.60;99.90;;;;;;5028279;28;20429;-67
2022/04/02 07:05:53;;;;;;;4.87;2.27;;;;;;;;;;5028579;28;20036;-67
2022/04/02 07:08:20;;;;;;;7.00;2.43;;;;;;;;;;5028575;28;20033;-71
2022/04/02 07:10:45;;;;;;;4.00;2.47;;;2.90;99.90;;;;;;5027866;28;20037;-67
2022/04/02 07:13:11;;;;;;;4.17;2.07;;;3.00;99.90;;;;;;5027369;28;20129;-68
2022/04/02 07:15:39;;;;;;;5.80;2.87;;;3.10;99.90;;;;;;5027816;28;20026;-67
2022/04/02 07:18:06;;;;;;;5.27;2.37;;;3.30;99.90;;;;;;5026300;28;20109;-67
2022/04/02 07:20:35;;;;;;;4.60;2.30;;;3.20;99.80;;;;;;5026023;28;20030;-68
2022/04/02 07:23:07;;;;;;;6.23;3.50;;;2.90;99.90;;;;;;5028355;28;20033;-68
2022/04/02 07:25:37;;;;;;;5.97;2.63;;;3.20;99.90;;;;;;5030576;28;20122;-68
2022/04/02 07:28:04;;;;;;;4.70;2.87;;;3.30;99.70;;;;;;5032511;28;20362;-68
2022/04/02 07:30:35;;;;;;;7.20;2.67;;;3.30;99.90;;;;;;5031758;28;20172;-68
2022/04/02 07:33:02;;;;;;;5.50;2.60;;;3.50;99.90;;;;;;5032515;28;20021;-68
2022/04/02 07:35:34;;;;;;;7.40;2.73;;;3.30;99.90;;;;;;5047982;22;20049;-72
2022/04/02 07:38:16;;;;;;;7.73;3.00;;;3.10;99.90;;;;;;5033597;28;20029;-72
2022/04/02 07:40:56;;;;;;;6.83;2.70;;;3.70;99.90;;;;;;5031877;28;20069;-73
2022/04/02 07:43:49;;;;;;;4.53;2.67;;;3.60;99.90;;;;;;5033674;28;20034;-72
2022/04/02 07:46:20;;;;;;;4.80;3.27;;;3.70;99.40;;;;;;5015608;28;20038;-73
2022/04/02 07:48:48;;;;;;;4.70;2.47;;;3.70;99.30;;;;;;5026917;28;20021;-73
2022/04/02 07:51:15;;;;;;;4.33;2.53;;;3.60;99.90;;;;;;5016496;28;20022;-73
2022/04/02 07:53:47;;;;;;;5.27;2.13;;;3.80;99.90;;;;;;5015930;28;20030;-73
2022/04/02 07:56:18;;;;;;;5.47;2.47;;;3.70;99.30;;;;;;5033185;28;20031;-73
2022/04/02 07:58:51;;;;;;;4.13;2.27;;;2.60;98.10;;;;;;5031276;28;20053;-73
2022/04/02 08:01:19;;;;;;;5.68;2.30;;;3.90;99.20;;;;;;5024919;28;20034;-73
2022/04/02 08:03:46;;;;;;;5.73;3.13;;;3.80;99.00;;;;;;5012227;28;20045;-72
2022/04/02 08:06:15;;;;;;;4.27;2.53;;;3.90;99.90;;;;;;5032960;28;20119;-73
2022/04/02 08:08:42;;;;;;;6.77;2.83;;;3.90;99.90;;;;;;5031878;28;20107;-72
2022/04/02 08:11:10;;;;;;;6.83;2.90;;;4.00;99.90;;;;;;5019914;28;20034;-72
2022/04/02 08:13:37;;;;;;;4.47;2.70;;;4.20;99.90;;;;;;5031511;28;20026;-71
2022/04/02 08:16:03;;;;;;;4.83;2.80;;;4.10;98.20;;;;;;5031604;28;20021;-72
2022/04/02 08:18:30;;;;;;;9.20;3.57;;;4.20;99.90;;;;;;5013273;28;20690;-72
2022/04/02 08:20:56;;;;;;;8.87;3.07;;;4.10;99.90;;;;;;5031354;28;20022;-72
2022/04/02 08:23:21;;;;;;;7.73;3.37;;;4.30;99.90;;;;;;5031309;28;20030;-72
2022/04/02 08:25:59;;;;;;;4.93;2.77;;;4.40;99.90;;;;;;5013544;28;20129;-73
2022/04/02 08:28:52;;;;;;;6.50;2.43;;;4.50;97.30;;;;;;5032267;28;20494;-72
2022/04/02 08:31:30;;;;;;;5.87;3.50;;;4.40;97.30;;;;;;5020127;28;20480;-72
2022/04/02 08:34:16;;;;;;;7.43;2.93;;;4.40;98.80;;;;;;5014098;28;20033;-72
2022/04/02 08:36:52;;;;;;;4.43;3.37;;;4.50;99.90;;;;;;4998834;28;20076;-72
2022/04/02 08:39:49;;;;;;;6.07;2.73;;;4.60;99.90;;;;;;5012712;28;20073;-72
2022/04/02 08:42:51;;;;;;;4.83;2.80;;;4.60;97.00;;;;;;5011706;28;20395;-73
2022/04/02 08:45:28;;;;;;;6.20;3.53;;;4.70;99.90;;;;;;5011268;28;20041;-73
2022/04/02 08:48:17;;;;;;;8.63;3.20;;;4.80;97.60;;;;;;5000265;28;20025;-72
2022/04/02 08:51:10;;;;;;;6.83;3.30;;;5.00;99.90;;;;;;5013726;28;20035;-72
2022/04/02 08:53:47;;;;;;;7.97;3.10;;;5.20;99.90;;;;;;5019861;28;20036;-72
2022/04/02 08:56:20;;;;;;;7.80;3.37;;;5.50;99.90;;;;;;5022608;28;20064;-72
2022/04/02 08:58:58;;;;;;;6.03;3.42;;;5.60;99.90;;;;;;5031394;28;20026;-72
2022/04/02 09:01:27;;;;;;;5.80;3.60;;;5.90;95.90;;;;;;5013257;28;20069;-73
2022/04/02 09:04:11;;;;;;;5.80;3.73;;;6.20;98.70;;;;;;5025351;28;20402;-73
2022/04/02 09:07:04;;;;;;;5.13;3.57;;;5.90;94.60;;;;;;5029635;28;20053;-72
2022/04/02 09:09:55;;;;;;;8.07;3.30;;;6.00;99.90;;;;;;5030417;28;20316;-72
2022/04/02 09:12:56;;;;;;;5.57;3.07;;;6.00;99.90;;;;;;5030053;28;20033;-72
2022/04/02 09:15:49;;;;;;;4.13;2.50;;;6.00;99.90;;;;;;5006892;28;20045;-72
2022/04/02 09:18:35;;;;;;;3.83;2.90;;;6.60;94.20;;;;;;5030834;28;20063;-72
2022/04/02 09:21:20;;;;;;;6.33;3.17;;;6.20;99.90;;;;;;5019355;28;20470;-72
2022/04/02 09:24:04;;;;;;;;;;;6.30;94.40;;;;;;5026711;28;20095;-72
2022/04/02 09:26:58;;;;;;;5.30;2.60;;;5.90;93.10;;;;;;5018594;28;19920;-72
2022/04/02 09:29:24;;;;;;;4.53;3.07;;;;;;;;;;5028505;28;20035;-72
2022/04/02 09:32:10;;;;;;;3.90;2.30;;;6.00;93.40;;;;;;5030686;28;20449;-73
2022/04/02 09:34:57;;;;;;;4.53;2.40;;;5.80;99.90;;;;;;5021975;28;20046;-73
2022/04/02 09:37:57;;;;;;;4.43;3.47;;;5.90;96.50;;;;;;5025815;28;20483;-72
2022/04/02 09:40:38;;;;;;;9.40;3.87;;;5.80;94.30;;;;;;5024267;28;20026;-72
2022/04/02 09:43:24;;;;;;;4.83;2.80;;;5.60;94.90;;;;;;5025538;28;20045;-73
2022/04/02 09:46:25;;;;;;;6.93;3.70;;;5.60;99.90;;;;;;5027243;28;20057;-73
2022/04/02 09:48:58;;;;;;;5.27;2.63;;;5.40;99.90;;;;;;5025554;28;20069;-73
2022/04/02 09:51:32;;;;;;;5.20;2.90;;;5.60;99.90;;;;;;5027742;28;20010;-74
2022/04/02 09:54:14;;;;;;;3.30;2.60;;;5.70;99.90;;;;;;5007149;28;20040;-73
2022/04/02 09:56:41;;;;;;;3.63;2.60;;;5.70;99.90;;;;;;5029918;28;20035;-74
2022/04/02 09:59:18;;;;;;;3.23;2.20;;;5.80;99.50;;;;;;5029734;28;20071;-73
2022/04/02 10:02:01;;;;;;;5.67;2.70;;;6.00;99.20;;;;;;5029741;28;20048;-72
2022/04/02 10:04:47;;;;;;;5.20;2.10;;;5.90;91.00;;;;;;5021985;28;20022;-73
2022/04/02 10:07:44;;;;;;;4.23;2.13;;;6.10;98.60;;;;;;5026186;28;20025;-72
2022/04/02 10:10:11;;;;;;;5.23;2.33;;;6.30;90.80;;;;;;5012390;28;20021;-73
2022/04/02 10:12:40;;;;;;;2.60;1.63;;;6.40;97.60;;;;;;5024226;28;20108;-73
2022/04/02 10:15:06;;;;;;;3.43;2.10;;;6.40;96.30;;;;;;5025459;28;20036;-74
2022/04/02 10:17:32;;;;;;;5.63;1.50;;;6.40;96.20;;;;;;5011117;28;20139;-73
2022/04/02 10:19:59;;;;;;;5.37;1.63;;;6.50;95.80;;;;;;5029018;28;20018;-74
2022/04/02 10:22:38;;;;;;;3.67;1.90;;;6.10;85.90;;;;;;5011216;28;20302;-74
2022/04/02 10:25:11;;;;;;;2.73;1.77;;;6.20;86.50;;;;;;5025880;28;20034;-74
2022/04/02 10:27:42;;;;;;;5.87;1.80;;;6.30;96.10;;;;;;5029133;28;20083;-75
2022/04/02 10:30:13;;;;;;;3.13;1.67;;;6.20;96.00;;;;;;5025491;28;20440;-75
2022/04/02 10:32:39;;;;;;;5.20;2.13;;;;;;;;;;5022131;28;20030;-74
2022/04/02 10:35:07;;;;;;;3.10;1.57;;;6.20;88.60;;;;;;5024155;28;20061;-74
2022/04/02 10:37:42;;;;;;;3.50;1.50;;;6.30;88.00;;;;;;5028491;28;20063;-75
2022/04/02 10:40:11;;;;;;;2.37;1.73;;;6.30;95.60;;;;;;5029980;28;20050;-74
2022/04/02 10:42:42;;;;;;;1.40;0.90;;;6.50;83.40;;;;;;5028600;28;20091;-74
2022/04/02 10:45:13;;;;;;;1.93;1.23;;;6.50;93.90;;;;;;5029665;28;20025;-74
2022/04/02 10:47:59;;;;;;;4.97;1.20;;;6.70;94.40;;;;;;5023356;28;20502;-74
2022/04/02 10:50:26;;;;;;;4.20;1.63;;;;;;;;;;5023270;28;20863;-74
2022/04/02 10:52:51;;;;;;;2.70;1.50;;;6.50;93.40;;;;;;5021885;28;20053;-73
2022/04/02 10:55:21;;;;;;;5.47;1.47;;;6.60;93.60;;;;;;5005156;28;20041;-73
2022/04/02 10:57:47;;;;;;;3.27;1.23;;;6.50;93.80;;;;;;5028420;28;20034;-74
2022/04/02 11:00:17;;;;;;;3.30;1.20;;;6.50;82.50;;;;;;5009102;28;20120;-75
2022/04/02 11:02:46;;;;;;;2.40;1.07;;;6.40;93.60;;;;;;5031940;28;21095;-74
2022/04/02 11:05:14;;;;;;;2.60;1.27;;;6.40;93.80;;;;;;5032890;28;20108;-74
2022/04/02 11:07:44;;;;;;;2.03;1.37;;;6.40;93.40;;;;;;5032139;28;20029;-74
2022/04/02 11:10:15;;;;;;;2.10;1.20;;;6.20;93.50;;;;;;5015610;28;20025;-74
2022/04/02 11:12:42;;;;;;;3.17;1.43;;;6.60;93.20;;;;;;5025713;28;20030;-73
2022/04/02 11:15:10;;;;;;;4.07;1.30;;;6.50;93.20;;;;;;4999723;28;20022;-73
2022/04/02 11:18:01;;;;;;;5.97;1.20;;;6.50;93.40;;;;;;5029281;28;20029;-74
2022/04/02 11:20:30;;;;;;;1.97;1.27;;;6.80;80.50;;;;;;5030112;28;20026;-70
2022/04/02 11:23:08;;;;;;;1.67;1.10;;;7.00;93.40;;;;;;5032466;28;20046;-71
2022/04/02 11:25:39;;;;;;;2.50;1.20;;;7.00;84.10;;;;;;5032475;28;20025;-71
2022/04/02 11:28:05;;;;;;;3.07;1.40;;;7.00;89.20;;;;;;5025501;28;20049;-73
2022/04/02 11:30:33;;;;;;;2.07;1.13;;;6.50;81.50;;;;;;5026194;28;20030;-72
2022/04/02 11:33:09;;;;;;;2.10;1.40;;;6.80;93.10;;;;;;5029682;28;20068;-73
2022/04/02 11:35:44;;;;;;;5.67;1.37;;;6.70;93.30;;;;;;5021142;28;20060;-72
2022/04/02 11:38:20;;;;;;;4.23;1.40;;;6.70;91.30;;;;;;5026787;28;20364;-73
2022/04/02 11:41:16;;;;;;;3.33;1.60;;;6.70;92.80;;;;;;5017663;28;20021;-74
2022/04/02 11:43:44;;;;;;;4.43;1.40;;;6.90;83.10;;;;;;5020223;28;20033;-73
2022/04/02 11:46:12;;;;;;;2.47;1.13;;;7.10;82.20;;;;;;5020152;28;20030;-72
2022/04/02 11:48:59;;;;;;;3.30;1.33;;;7.30;93.40;;;;;;5019398;28;20026;-73
2022/04/02 11:51:30;;;;;;;3.23;1.30;;;7.10;93.20;;;;;;5015979;28;20034;-73
2022/04/02 11:54:04;;;;;;;3.10;1.23;;;7.00;92.80;;;;;;5021074;28;20053;-73
2022/04/02 11:56:30;;;;;;;;;;;7.10;81.00;;;;;;5001852;28;20060;-72
2022/04/02 11:59:16;;;;;;;2.43;1.20;;;6.90;92.50;;;;;;5020151;28;20368;-73
2022/04/02 12:01:48;;;;;;;2.37;0.90;;;6.80;92.70;;;;;;5030994;28;20037;-73
2022/04/02 12:04:16;;;;;;;4.33;1.63;;;6.90;92.40;;;;;;5026545;28;20036;-72
2022/04/02 12:06:53;;;;;;;4.77;1.13;;;6.80;92.70;;;;;;5024301;28;20548;-73
2022/04/02 12:09:23;;;;;;;4.53;1.30;;;6.90;92.60;;;;;;5031652;28;20025;-73
2022/04/02 12:11:51;;;;;;;1.67;1.03;;;6.80;92.80;;;;;;5031719;28;20029;-72
2022/04/02 12:14:29;;;;;;;3.37;1.10;;;6.80;92.70;;;;;;5031851;28;20152;-72
2022/04/02 12:17:05;;;;;;;1.40;1.07;;;6.70;81.20;;;;;;5014538;28;20061;-72
2022/04/02 12:19:34;;;;;;;3.53;1.27;;;6.80;80.80;;;;;;5027656;28;20052;-73
2022/04/02 12:22:01;;;;;;;2.83;1.50;;;6.90;93.40;;;;;;5032051;28;20033;-73
2022/04/02 12:24:37;;;;;;;2.03;1.17;;;7.00;82.40;;;;;;5032465;28;20079;-73
2022/04/02 12:27:08;;;;;;;1.80;1.00;;;7.30;86.90;;;;;;5031925;28;20047;-73
2022/04/02 12:29:35;;;;;;;2.50;1.20;;;7.20;91.70;;;;;;5028882;28;20080;-72
2022/04/02 12:32:01;;;;;;;2.57;1.30;;;7.20;92.40;;;;;;5029723;28;20034;-72
2022/04/02 12:34:27;;;;;;;4.13;1.63;;;7.20;81.10;;;;;;5029653;28;20137;-73
2022/04/02 12:37:01;;;;;;;3.47;1.10;;;7.00;81.00;;;;;;5018948;28;20033;-72
2022/04/02 12:39:27;;;;;;;1.73;0.93;;;7.00;88.00;;;;;;5026390;28;20025;-72
2022/04/02 12:41:53;;;;;;;2.90;1.23;;;6.90;90.60;;;;;;5031620;28;20386;-72
2022/04/02 12:44:21;;;;;;;2.93;1.17;;;6.60;93.40;;;;;;5031644;28;20021;-72
2022/04/02 12:46:46;;;;;;;3.40;1.60;;;6.50;92.60;;;;;;5031546;28;20025;-72
2022/04/02 12:49:33;;;;;;;4.40;1.00;;;6.50;87.90;;;;;;5031090;28;20479;-73
2022/04/02 12:52:17;;;;;;;4.73;1.87;;;6.40;83.00;;;;;;5027292;28;20021;-72
2022/04/02 12:54:50;;;;;;;3.47;1.38;;;6.40;85.60;;;;;;5031396;28;20437;-73
2022/04/02 12:57:16;;;;;;;3.63;1.35;;;;;;;;;;5031832;28;20034;-73
2022/04/02 12:59:44;;;;;;;2.33;1.20;;;6.30;87.40;;;;;;5027139;28;20463;-73
2022/04/02 13:02:13;;;;;;;2.07;1.47;;;6.20;90.70;;;;;;5020156;28;20072;-73
2022/04/02 13:04:41;;;;;;;3.03;1.20;;;5.90;88.60;;;;;;5021227;28;20437;-74
2022/04/02 13:07:19;;;;;;;3.60;1.23;;;6.70;95.80;;;;;;5029917;28;20030;-73
2022/04/02 13:09:47;;;;;;;2.17;1.00;;;6.50;95.50;;;;;;5027151;28;20390;-74
2022/04/02 13:12:22;;;;;;;1.13;0.70;;;6.80;87.20;;;;;;5015559;28;20026;-72
2022/04/02 13:15:15;;;;;;;1.87;1.03;;;7.00;84.40;;;;;;5025561;28;20475;-72
2022/04/02 13:20:38;;;;;;;2.23;1.00;;;7.20;82.20;;;;;;4972395;28;20041;-72
2022/04/02 13:23:06;;;;;;;3.47;1.20;;;7.10;93.40;;;;;;5018625;28;20036;-72
2022/04/02 13:25:46;;;;;;;2.00;1.00;;;7.20;93.30;;;;;;5020907;28;20038;-72
2022/04/02 13:28:36;;;;;;;3.03;1.20;;;7.20;80.70;;;;;;5017774;28;20071;-72
2022/04/02 13:31:01;;;;;;;2.90;0.90;;;7.10;92.60;;;;;;5023091;28;20025;-73
2022/04/02 13:33:49;;;;;;;2.13;1.23;;;7.20;82.60;;;;;;5019925;28;20068;-73
2022/04/02 13:36:24;;;;;;;1.57;0.90;;;7.40;92.50;;;;;;4976636;28;20038;-72